St. Clair County Airport

Airport
ICAO code: 
KPLR
Summary
ICAO Region: 
NAM
Territory: 
Location: 
Pell City, Alabama,
Coordinates: 
Aerial View: 
33° 33' 31.993" N, 86° 14' 57.005" W
Airport WX: 
Cumulonimbus
Metar
Observation
KPLR 021455Z AUTO 19003KT 10SM CLR 13/10 A3017 RMK A01
Station
St Clair County Airport
Date/Time
2021-12-02 14:55:00
Wind direction
190°
Wind speed
03 kts
Lowest cloud amount
n/a
Temperature
13°C
Dew point
10°C
Humidity
82%
Weather condition
n/a

Description

General aviation and reliever airport just east of Birmingham Alabama, USA.

Climatology

Humid “subtropical” climate (Köppen climate classification Cfa) - characterized by hot, humid summers and cool winters. Significant amounts of precipitation occur in all seasons in most areas. Winter rainfall (and sometimes snowfall) is associated with large storms that the westerlies steer from west to east. Most summer rainfall occurs during thunderstorms and occasional tropical storms (hurricanes).

Runways

Designator Length Width Surface Rops
3/21 1524 24 ASPH-E No/No
Airport map: 
Aerial View: 

SKYbrary Partners:

Safety knowledge contributed by: